sensor_id;sensor_type;location;lat;lon;timestamp;P1;durP1;ratioP1;P2;durP2;ratioP2
4915;SDS011;70796;52.406;13.230;2024-03-23T00:54:47;12.13;;;2.80;;
4915;SDS011;70796;52.406;13.230;2024-03-23T00:57:12;12.17;;;3.63;;
4915;SDS011;70796;52.406;13.230;2024-03-23T00:59:38;19.50;;;3.43;;
4915;SDS011;70796;52.406;13.230;2024-03-23T01:02:03;15.07;;;3.77;;
4915;SDS011;70796;52.406;13.230;2024-03-23T01:04:29;22.27;;;4.30;;
4915;SDS011;70796;52.406;13.230;2024-03-23T01:06:54;14.80;;;3.67;;
4915;SDS011;70796;52.406;13.230;2024-03-23T01:09:20;14.20;;;3.90;;
4915;SDS011;70796;52.406;13.230;2024-03-23T01:11:46;24.13;;;3.00;;
4915;SDS011;70796;52.406;13.230;2024-03-23T01:14:11;17.13;;;3.30;;
4915;SDS011;70796;52.406;13.230;2024-03-23T01:16:36;18.00;;;3.40;;
4915;SDS011;70796;52.406;13.230;2024-03-23T01:19:02;19.37;;;4.33;;
4915;SDS011;70796;52.406;13.230;2024-03-23T01:21:27;26.20;;;4.10;;
4915;SDS011;70796;52.406;13.230;2024-03-23T01:23:53;23.17;;;3.83;;
4915;SDS011;70796;52.406;13.230;2024-03-23T01:26:19;19.93;;;3.63;;
4915;SDS011;70796;52.406;13.230;2024-03-23T01:28:44;15.93;;;4.10;;
4915;SDS011;70796;52.406;13.230;2024-03-23T01:31:10;26.20;;;4.30;;
4915;SDS011;70796;52.406;13.230;2024-03-23T01:33:36;17.10;;;4.50;;
4915;SDS011;70796;52.406;13.230;2024-03-23T01:36:01;21.90;;;4.23;;
4915;SDS011;70796;52.406;13.230;2024-03-23T01:38:27;18.63;;;4.20;;
4915;SDS011;70796;52.406;13.230;2024-03-23T01:40:58;15.80;;;4.43;;
4915;SDS011;70796;52.406;13.230;2024-03-23T01:43:24;14.70;;;4.90;;
4915;SDS011;70796;52.406;13.230;2024-03-23T01:45:50;12.93;;;3.80;;
4915;SDS011;70796;52.406;13.230;2024-03-23T01:48:19;26.23;;;5.20;;
4915;SDS011;70796;52.406;13.230;2024-03-23T01:50:45;23.30;;;5.30;;
4915;SDS011;70796;52.406;13.230;2024-03-23T01:53:11;21.60;;;4.57;;
4915;SDS011;70796;52.406;13.230;2024-03-23T01:55:36;18.43;;;4.07;;
4915;SDS011;70796;52.406;13.230;2024-03-23T01:58:05;14.20;;;5.43;;
4915;SDS011;70796;52.406;13.230;2024-03-23T02:00:31;18.43;;;3.60;;
4915;SDS011;70796;52.406;13.230;2024-03-23T02:02:57;27.40;;;4.07;;
4915;SDS011;70796;52.406;13.230;2024-03-23T02:05:23;16.60;;;4.30;;
4915;SDS011;70796;52.406;13.230;2024-03-23T02:07:49;17.93;;;3.13;;
4915;SDS011;70796;52.406;13.230;2024-03-23T02:10:16;13.50;;;3.57;;
4915;SDS011;70796;52.406;13.230;2024-03-23T02:12:41;20.73;;;3.70;;
4915;SDS011;70796;52.406;13.230;2024-03-23T02:15:07;16.60;;;3.07;;
4915;SDS011;70796;52.406;13.230;2024-03-23T02:17:34;18.10;;;3.50;;
4915;SDS011;70796;52.406;13.230;2024-03-23T02:20:01;18.23;;;5.47;;
4915;SDS011;70796;52.406;13.230;2024-03-23T02:22:37;13.50;;;3.37;;
4915;SDS011;70796;52.406;13.230;2024-03-23T02:25:04;21.13;;;3.87;;
4915;SDS011;70796;52.406;13.230;2024-03-23T02:27:30;24.97;;;3.83;;
4915;SDS011;70796;52.406;13.230;2024-03-23T02:29:56;11.60;;;3.80;;
4915;SDS011;70796;52.406;13.230;2024-03-23T02:32:21;15.90;;;3.63;;
4915;SDS011;70796;52.406;13.230;2024-03-23T02:34:47;21.30;;;3.40;;
4915;SDS011;70796;52.406;13.230;2024-03-23T02:37:12;17.53;;;3.60;;
4915;SDS011;70796;52.406;13.230;2024-03-23T02:39:38;15.33;;;3.63;;
4915;SDS011;70796;52.406;13.230;2024-03-23T02:42:04;11.23;;;3.17;;
4915;SDS011;70796;52.406;13.230;2024-03-23T02:44:30;17.70;;;3.90;;
4915;SDS011;70796;52.406;13.230;2024-03-23T02:46:55;12.83;;;3.40;;
4915;SDS011;70796;52.406;13.230;2024-03-23T02:49:21;19.70;;;4.13;;
4915;SDS011;70796;52.406;13.230;2024-03-23T02:51:47;12.87;;;3.40;;
4915;SDS011;70796;52.406;13.230;2024-03-23T02:54:13;17.37;;;3.60;;
4915;SDS011;70796;52.406;13.230;2024-03-23T02:56:39;14.83;;;3.53;;
4915;SDS011;70796;52.406;13.230;2024-03-23T02:59:04;19.73;;;4.47;;
4915;SDS011;70796;52.406;13.230;2024-03-23T03:01:30;17.77;;;4.53;;
4915;SDS011;70796;52.406;13.230;2024-03-23T03:03:55;13.37;;;3.93;;
4915;SDS011;70796;52.406;13.230;2024-03-23T03:06:27;14.17;;;4.37;;
4915;SDS011;70796;52.406;13.230;2024-03-23T03:08:54;15.00;;;3.50;;
4915;SDS011;70796;52.406;13.230;2024-03-23T03:11:20;22.30;;;3.80;;
4915;SDS011;70796;52.406;13.230;2024-03-23T03:13:45;24.37;;;4.40;;
4915;SDS011;70796;52.406;13.230;2024-03-23T03:16:11;15.97;;;3.57;;
4915;SDS011;70796;52.406;13.230;2024-03-23T03:18:37;31.63;;;4.87;;
4915;SDS011;70796;52.406;13.230;2024-03-23T03:21:03;29.83;;;4.67;;
4915;SDS011;70796;52.406;13.230;2024-03-23T03:23:30;24.10;;;4.47;;
4915;SDS011;70796;52.406;13.230;2024-03-23T03:25:55;12.20;;;4.20;;
4915;SDS011;70796;52.406;13.230;2024-03-23T03:28:22;24.83;;;5.60;;
4915;SDS011;70796;52.406;13.230;2024-03-23T03:30:47;16.00;;;3.93;;
4915;SDS011;70796;52.406;13.230;2024-03-23T03:33:13;27.43;;;5.83;;
4915;SDS011;70796;52.406;13.230;2024-03-23T03:35:38;19.10;;;4.30;;
4915;SDS011;70796;52.406;13.230;2024-03-23T03:38:04;19.40;;;4.20;;
4915;SDS011;70796;52.406;13.230;2024-03-23T03:40:30;15.90;;;4.13;;
4915;SDS011;70796;52.406;13.230;2024-03-23T03:42:57;22.30;;;3.97;;
4915;SDS011;70796;52.406;13.230;2024-03-23T03:45:23;17.43;;;4.03;;
4915;SDS011;70796;52.406;13.230;2024-03-23T03:47:48;18.97;;;4.30;;
4915;SDS011;70796;52.406;13.230;2024-03-23T03:50:14;29.50;;;4.40;;
4915;SDS011;70796;52.406;13.230;2024-03-23T03:52:39;19.60;;;4.80;;
4915;SDS011;70796;52.406;13.230;2024-03-23T03:55:06;20.17;;;3.63;;
4915;SDS011;70796;52.406;13.230;2024-03-23T03:57:37;29.70;;;5.10;;
4915;SDS011;70796;52.406;13.230;2024-03-23T04:00:03;14.73;;;3.30;;
4915;SDS011;70796;52.406;13.230;2024-03-23T04:02:29;20.83;;;3.60;;
4915;SDS011;70796;52.406;13.230;2024-03-23T04:04:55;17.40;;;3.97;;
4915;SDS011;70796;52.406;13.230;2024-03-23T04:07:20;21.60;;;3.90;;
4915;SDS011;70796;52.406;13.230;2024-03-23T04:09:48;14.43;;;3.00;;
4915;SDS011;70796;52.406;13.230;2024-03-23T04:12:14;14.87;;;3.17;;
4915;SDS011;70796;52.406;13.230;2024-03-23T04:14:40;23.27;;;3.47;;
4915;SDS011;70796;52.406;13.230;2024-03-23T04:17:06;23.70;;;3.30;;
4915;SDS011;70796;52.406;13.230;2024-03-23T04:19:32;24.00;;;3.70;;
4915;SDS011;70796;52.406;13.230;2024-03-23T04:21:57;22.53;;;4.20;;
4915;SDS011;70796;52.406;13.230;2024-03-23T04:24:23;15.60;;;3.70;;
4915;SDS011;70796;52.406;13.230;2024-03-23T04:26:51;18.63;;;3.50;;
4915;SDS011;70796;52.406;13.230;2024-03-23T04:29:16;18.23;;;4.10;;
4915;SDS011;70796;52.406;13.230;2024-03-23T04:31:42;20.93;;;3.67;;
4915;SDS011;70796;52.406;13.230;2024-03-23T04:34:08;10.80;;;2.80;;
4915;SDS011;70796;52.406;13.230;2024-03-23T04:36:33;16.43;;;3.50;;
4915;SDS011;70796;52.406;13.230;2024-03-23T04:38:59;16.03;;;3.47;;
4915;SDS011;70796;52.406;13.230;2024-03-23T04:41:25;20.73;;;3.50;;
4915;SDS011;70796;52.406;13.230;2024-03-23T04:43:51;14.77;;;3.13;;
4915;SDS011;70796;52.406;13.230;2024-03-23T04:46:16;15.33;;;2.90;;
4915;SDS011;70796;52.406;13.230;2024-03-23T04:48:42;10.27;;;3.10;;
4915;SDS011;70796;52.406;13.230;2024-03-23T04:51:09;9.67;;;2.70;;
4915;SDS011;70796;52.406;13.230;2024-03-23T04:53:37;14.43;;;3.00;;
4915;SDS011;70796;52.406;13.230;2024-03-23T04:56:03;8.50;;;3.00;;
4915;SDS011;70796;52.406;13.230;2024-03-23T04:58:29;17.07;;;2.57;;
4915;SDS011;70796;52.406;13.230;2024-03-23T05:00:55;10.07;;;2.63;;
4915;SDS011;70796;52.406;13.230;2024-03-23T05:03:22;15.57;;;3.83;;
4915;SDS011;70796;52.406;13.230;2024-03-23T05:05:49;12.27;;;2.77;;
4915;SDS011;70796;52.406;13.230;2024-03-23T05:08:15;16.57;;;2.80;;
4915;SDS011;70796;52.406;13.230;2024-03-23T05:10:42;18.20;;;2.50;;
4915;SDS011;70796;52.406;13.230;2024-03-23T05:13:09;12.77;;;2.43;;
4915;SDS011;70796;52.406;13.230;2024-03-23T05:15:34;5.07;;;2.17;;
4915;SDS011;70796;52.406;13.230;2024-03-23T05:18:00;12.30;;;2.70;;
4915;SDS011;70796;52.406;13.230;2024-03-23T05:20:25;6.60;;;2.40;;
4915;SDS011;70796;52.406;13.230;2024-03-23T05:22:52;6.67;;;2.23;;
4915;SDS011;70796;52.406;13.230;2024-03-23T05:25:17;8.33;;;2.30;;
4915;SDS011;70796;52.406;13.230;2024-03-23T05:27:43;6.40;;;2.00;;
4915;SDS011;70796;52.406;13.230;2024-03-23T05:30:08;12.80;;;2.47;;
4915;SDS011;70796;52.406;13.230;2024-03-23T05:32:35;7.27;;;2.40;;
4915;SDS011;70796;52.406;13.230;2024-03-23T05:35:00;9.70;;;2.40;;
4915;SDS011;70796;52.406;13.230;2024-03-23T05:37:26;7.10;;;2.53;;
4915;SDS011;70796;52.406;13.230;2024-03-23T05:39:52;9.23;;;2.37;;
4915;SDS011;70796;52.406;13.230;2024-03-23T05:42:18;8.90;;;2.10;;
4915;SDS011;70796;52.406;13.230;2024-03-23T05:44:47;15.83;;;2.50;;
4915;SDS011;70796;52.406;13.230;2024-03-23T05:47:12;10.37;;;2.87;;
4915;SDS011;70796;52.406;13.230;2024-03-23T05:49:40;11.97;;;2.40;;
4915;SDS011;70796;52.406;13.230;2024-03-23T05:52:10;8.83;;;2.13;;
4915;SDS011;70796;52.406;13.230;2024-03-23T05:54:36;7.97;;;2.30;;
4915;SDS011;70796;52.406;13.230;2024-03-23T05:57:02;5.50;;;2.10;;
4915;SDS011;70796;52.406;13.230;2024-03-23T05:59:28;12.60;;;2.23;;
4915;SDS011;70796;52.406;13.230;2024-03-23T06:01:53;12.30;;;2.97;;
4915;SDS011;70796;52.406;13.230;2024-03-23T06:04:19;13.83;;;3.37;;
4915;SDS011;70796;52.406;13.230;2024-03-23T06:06:44;14.43;;;2.63;;
4915;SDS011;70796;52.406;13.230;2024-03-23T06:09:10;7.20;;;2.47;;
4915;SDS011;70796;52.406;13.230;2024-03-23T06:11:36;13.80;;;3.17;;
4915;SDS011;70796;52.406;13.230;2024-03-23T06:14:02;14.40;;;2.80;;
4915;SDS011;70796;52.406;13.230;2024-03-23T06:16:27;13.13;;;2.70;;
4915;SDS011;70796;52.406;13.230;2024-03-23T06:18:53;14.60;;;2.70;;
4915;SDS011;70796;52.406;13.230;2024-03-23T06:21:22;11.40;;;3.17;;
4915;SDS011;70796;52.406;13.230;2024-03-23T06:23:51;13.47;;;3.03;;
4915;SDS011;70796;52.406;13.230;2024-03-23T06:26:18;15.23;;;3.20;;
4915;SDS011;70796;52.406;13.230;2024-03-23T06:28:46;19.83;;;3.50;;
4915;SDS011;70796;52.406;13.230;2024-03-23T06:31:14;13.80;;;2.93;;
4915;SDS011;70796;52.406;13.230;2024-03-23T06:33:40;9.60;;;3.20;;
4915;SDS011;70796;52.406;13.230;2024-03-23T06:36:09;8.63;;;3.43;;
4915;SDS011;70796;52.406;13.230;2024-03-23T06:38:35;12.67;;;3.33;;
4915;SDS011;70796;52.406;13.230;2024-03-23T06:41:04;12.87;;;3.20;;
4915;SDS011;70796;52.406;13.230;2024-03-23T06:43:30;18.80;;;3.03;;
4915;SDS011;70796;52.406;13.230;2024-03-23T06:45:55;7.97;;;2.30;;
4915;SDS011;70796;52.406;13.230;2024-03-23T06:48:21;16.20;;;3.30;;
4915;SDS011;70796;52.406;13.230;2024-03-23T06:50:48;23.93;;;3.13;;
4915;SDS011;70796;52.406;13.230;2024-03-23T06:53:14;14.90;;;3.90;;
4915;SDS011;70796;52.406;13.230;2024-03-23T06:55:40;9.80;;;2.50;;
4915;SDS011;70796;52.406;13.230;2024-03-23T06:58:07;18.50;;;2.40;;
4915;SDS011;70796;52.406;13.230;2024-03-23T07:00:33;13.53;;;2.60;;
4915;SDS011;70796;52.406;13.230;2024-03-23T07:02:59;17.17;;;3.10;;
4915;SDS011;70796;52.406;13.230;2024-03-23T07:05:25;7.60;;;2.30;;
4915;SDS011;70796;52.406;13.230;2024-03-23T07:07:51;16.23;;;3.33;;
4915;SDS011;70796;52.406;13.230;2024-03-23T07:10:16;14.33;;;3.50;;
4915;SDS011;70796;52.406;13.230;2024-03-23T07:12:44;12.10;;;3.33;;
4915;SDS011;70796;52.406;13.230;2024-03-23T07:15:09;13.57;;;4.73;;
4915;SDS011;70796;52.406;13.230;2024-03-23T07:17:35;13.57;;;2.70;;
4915;SDS011;70796;52.406;13.230;2024-03-23T07:20:01;9.97;;;2.87;;
4915;SDS011;70796;52.406;13.230;2024-03-23T07:22:32;10.30;;;2.90;;
4915;SDS011;70796;52.406;13.230;2024-03-23T07:25:00;11.97;;;3.30;;
4915;SDS011;70796;52.406;13.230;2024-03-23T07:27:25;9.87;;;2.50;;
4915;SDS011;70796;52.406;13.230;2024-03-23T07:29:51;15.40;;;2.83;;
4915;SDS011;70796;52.406;13.230;2024-03-23T07:32:16;11.70;;;2.83;;
4915;SDS011;70796;52.406;13.230;2024-03-23T07:34:42;10.73;;;2.50;;
4915;SDS011;70796;52.406;13.230;2024-03-23T07:37:09;12.07;;;2.63;;
4915;SDS011;70796;52.406;13.230;2024-03-23T07:39:36;6.33;;;2.90;;
4915;SDS011;70796;52.406;13.230;2024-03-23T07:42:02;12.40;;;3.30;;
4915;SDS011;70796;52.406;13.230;2024-03-23T07:44:28;11.33;;;2.57;;
4915;SDS011;70796;52.406;13.230;2024-03-23T07:46:53;15.70;;;3.00;;
4915;SDS011;70796;52.406;13.230;2024-03-23T07:49:19;12.47;;;3.07;;
4915;SDS011;70796;52.406;13.230;2024-03-23T07:51:44;15.70;;;3.73;;
4915;SDS011;70796;52.406;13.230;2024-03-23T07:54:10;13.00;;;2.73;;
4915;SDS011;70796;52.406;13.230;2024-03-23T07:56:36;10.97;;;3.13;;
4915;SDS011;70796;52.406;13.230;2024-03-23T07:59:01;9.90;;;3.03;;
4915;SDS011;70796;52.406;13.230;2024-03-23T08:01:28;11.63;;;3.00;;
4915;SDS011;70796;52.406;13.230;2024-03-23T08:03:55;13.43;;;3.40;;
4915;SDS011;70796;52.406;13.230;2024-03-23T08:06:21;11.33;;;2.80;;
4915;SDS011;70796;52.406;13.230;2024-03-23T08:08:53;9.13;;;2.87;;
4915;SDS011;70796;52.406;13.230;2024-03-23T08:11:31;3.97;;;2.50;;
4915;SDS011;70796;52.406;13.230;2024-03-23T08:13:59;7.80;;;2.97;;
4915;SDS011;70796;52.406;13.230;2024-03-23T08:16:27;10.80;;;2.90;;
4915;SDS011;70796;52.406;13.230;2024-03-23T08:18:52;11.80;;;2.90;;
4915;SDS011;70796;52.406;13.230;2024-03-23T08:21:18;8.70;;;2.70;;
4915;SDS011;70796;52.406;13.230;2024-03-23T08:23:45;10.37;;;2.77;;
4915;SDS011;70796;52.406;13.230;2024-03-23T08:26:11;15.60;;;3.60;;
4915;SDS011;70796;52.406;13.230;2024-03-23T08:28:38;10.43;;;3.37;;
4915;SDS011;70796;52.406;13.230;2024-03-23T08:31:05;16.00;;;2.90;;
4915;SDS011;70796;52.406;13.230;2024-03-23T08:33:31;14.20;;;2.73;;
4915;SDS011;70796;52.406;13.230;2024-03-23T08:35:58;6.47;;;2.40;;
4915;SDS011;70796;52.406;13.230;2024-03-23T08:38:26;8.53;;;2.40;;
4915;SDS011;70796;52.406;13.230;2024-03-23T08:43:24;10.43;;;2.53;;
4915;SDS011;70796;52.406;13.230;2024-03-23T08:45:49;5.30;;;2.50;;
4915;SDS011;70796;52.406;13.230;2024-03-23T08:48:16;12.23;;;2.40;;
4915;SDS011;70796;52.406;13.230;2024-03-23T08:50:41;6.90;;;2.27;;
4915;SDS011;70796;52.406;13.230;2024-03-23T08:53:07;3.87;;;2.40;;
4915;SDS011;70796;52.406;13.230;2024-03-23T08:55:34;12.93;;;2.97;;
4915;SDS011;70796;52.406;13.230;2024-03-23T08:58:00;9.97;;;2.57;;
4915;SDS011;70796;52.406;13.230;2024-03-23T09:00:26;7.60;;;2.37;;
4915;SDS011;70796;52.406;13.230;2024-03-23T09:02:52;3.30;;;1.70;;
4915;SDS011;70796;52.406;13.230;2024-03-23T09:05:19;10.87;;;1.77;;
4915;SDS011;70796;52.406;13.230;2024-03-23T09:07:44;5.50;;;1.73;;
4915;SDS011;70796;52.406;13.230;2024-03-23T09:10:10;7.50;;;1.77;;
4915;SDS011;70796;52.406;13.230;2024-03-23T09:12:36;2.20;;;1.37;;
4915;SDS011;70796;52.406;13.230;2024-03-23T09:15:02;8.23;;;2.00;;
4915;SDS011;70796;52.406;13.230;2024-03-23T09:17:28;11.83;;;2.33;;
4915;SDS011;70796;52.406;13.230;2024-03-23T09:19:55;4.07;;;1.43;;
4915;SDS011;70796;52.406;13.230;2024-03-23T09:22:22;5.40;;;1.63;;
4915;SDS011;70796;52.406;13.230;2024-03-23T09:24:47;3.20;;;1.80;;
4915;SDS011;70796;52.406;13.230;2024-03-23T09:27:13;6.63;;;1.93;;
4915;SDS011;70796;52.406;13.230;2024-03-23T09:29:39;7.97;;;2.33;;
4915;SDS011;70796;52.406;13.230;2024-03-23T09:32:05;4.23;;;1.87;;
4915;SDS011;70796;52.406;13.230;2024-03-23T09:34:33;7.20;;;2.43;;
4915;SDS011;70796;52.406;13.230;2024-03-23T09:36:59;13.73;;;2.40;;
4915;SDS011;70796;52.406;13.230;2024-03-23T09:39:24;8.10;;;1.80;;
4915;SDS011;70796;52.406;13.230;2024-03-23T09:41:50;9.70;;;2.20;;
4915;SDS011;70796;52.406;13.230;2024-03-23T09:44:15;5.10;;;2.40;;
4915;SDS011;70796;52.406;13.230;2024-03-23T09:46:41;8.23;;;2.30;;
4915;SDS011;70796;52.406;13.230;2024-03-23T09:49:07;7.23;;;1.90;;
4915;SDS011;70796;52.406;13.230;2024-03-23T09:51:37;7.17;;;2.30;;
4915;SDS011;70796;52.406;13.230;2024-03-23T09:54:03;12.80;;;2.60;;
4915;SDS011;70796;52.406;13.230;2024-03-23T09:56:28;10.10;;;2.07;;
4915;SDS011;70796;52.406;13.230;2024-03-23T09:59:03;8.23;;;2.37;;
4915;SDS011;70796;52.406;13.230;2024-03-23T10:01:30;11.57;;;2.10;;
4915;SDS011;70796;52.406;13.230;2024-03-23T10:03:56;7.40;;;2.07;;
4915;SDS011;70796;52.406;13.230;2024-03-23T10:06:22;14.00;;;3.50;;
4915;SDS011;70796;52.406;13.230;2024-03-23T10:08:51;14.20;;;2.53;;
4915;SDS011;70796;52.406;13.230;2024-03-23T10:11:18;17.00;;;2.37;;
4915;SDS011;70796;52.406;13.230;2024-03-23T10:13:44;20.50;;;3.00;;
4915;SDS011;70796;52.406;13.230;2024-03-23T10:16:11;5.53;;;2.37;;
4915;SDS011;70796;52.406;13.230;2024-03-23T10:18:37;6.77;;;2.33;;
4915;SDS011;70796;52.406;13.230;2024-03-23T10:23:32;6.77;;;2.10;;
4915;SDS011;70796;52.406;13.230;2024-03-23T10:26:14;7.90;;;2.33;;
4915;SDS011;70796;52.406;13.230;2024-03-23T10:28:57;7.93;;;2.10;;
4915;SDS011;70796;52.406;13.230;2024-03-23T10:31:27;17.90;;;2.67;;
4915;SDS011;70796;52.406;13.230;2024-03-23T10:33:54;4.23;;;1.83;;
4915;SDS011;70796;52.406;13.230;2024-03-23T10:36:20;5.73;;;2.10;;
4915;SDS011;70796;52.406;13.230;2024-03-23T10:38:47;9.40;;;1.93;;
4915;SDS011;70796;52.406;13.230;2024-03-23T10:41:13;9.70;;;2.40;;
4915;SDS011;70796;52.406;13.230;2024-03-23T10:43:38;9.40;;;2.43;;
4915;SDS011;70796;52.406;13.230;2024-03-23T10:46:05;4.07;;;2.13;;
4915;SDS011;70796;52.406;13.230;2024-03-23T10:48:31;8.00;;;2.20;;
4915;SDS011;70796;52.406;13.230;2024-03-23T10:50:57;7.00;;;2.27;;
4915;SDS011;70796;52.406;13.230;2024-03-23T10:53:27;6.33;;;1.67;;
4915;SDS011;70796;52.406;13.230;2024-03-23T10:55:54;10.77;;;2.03;;
4915;SDS011;70796;52.406;13.230;2024-03-23T10:58:24;6.53;;;1.90;;
4915;SDS011;70796;52.406;13.230;2024-03-23T11:00:53;6.07;;;1.67;;
4915;SDS011;70796;52.406;13.230;2024-03-23T11:03:35;8.47;;;1.77;;
4915;SDS011;70796;52.406;13.230;2024-03-23T11:06:02;5.93;;;1.70;;
4915;SDS011;70796;52.406;13.230;2024-03-23T11:08:38;3.13;;;1.90;;
4915;SDS011;70796;52.406;13.230;2024-03-23T11:11:14;7.83;;;1.67;;
4915;SDS011;70796;52.406;13.230;2024-03-23T11:13:52;6.00;;;2.30;;
4915;SDS011;70796;52.406;13.230;2024-03-23T11:16:28;9.60;;;2.33;;
4915;SDS011;70796;52.406;13.230;2024-03-23T11:22:01;8.83;;;2.53;;
4915;SDS011;70796;52.406;13.230;2024-03-23T11:24:28;6.97;;;2.13;;
4915;SDS011;70796;52.406;13.230;2024-03-23T11:26:54;10.37;;;2.30;;
4915;SDS011;70796;52.406;13.230;2024-03-23T11:29:20;7.43;;;2.67;;
4915;SDS011;70796;52.406;13.230;2024-03-23T11:31:51;11.60;;;2.93;;
4915;SDS011;70796;52.406;13.230;2024-03-23T11:34:18;7.80;;;1.80;;
4915;SDS011;70796;52.406;13.230;2024-03-23T11:36:47;7.57;;;2.30;;
4915;SDS011;70796;52.406;13.230;2024-03-23T11:41:49;10.13;;;2.93;;
4915;SDS011;70796;52.406;13.230;2024-03-23T11:44:20;10.43;;;2.30;;
4915;SDS011;70796;52.406;13.230;2024-03-23T11:46:47;9.97;;;2.50;;
4915;SDS011;70796;52.406;13.230;2024-03-23T11:49:29;8.73;;;2.83;;
4915;SDS011;70796;52.406;13.230;2024-03-23T11:51:55;10.53;;;2.30;;
4915;SDS011;70796;52.406;13.230;2024-03-23T11:54:25;6.27;;;2.27;;
4915;SDS011;70796;52.406;13.230;2024-03-23T11:56:58;5.87;;;2.27;;
4915;SDS011;70796;52.406;13.230;2024-03-23T11:59:31;9.73;;;2.83;;
4915;SDS011;70796;52.406;13.230;2024-03-23T12:01:56;8.97;;;3.13;;
4915;SDS011;70796;52.406;13.230;2024-03-23T12:04:28;11.30;;;3.30;;
4915;SDS011;70796;52.406;13.230;2024-03-23T12:10:02;5.40;;;2.20;;
4915;SDS011;70796;52.406;13.230;2024-03-23T12:12:30;8.23;;;2.43;;
4915;SDS011;70796;52.406;13.230;2024-03-23T12:15:02;14.70;;;2.83;;
4915;SDS011;70796;52.406;13.230;2024-03-23T12:17:33;11.63;;;2.53;;
4915;SDS011;70796;52.406;13.230;2024-03-23T12:20:00;7.33;;;2.90;;
4915;SDS011;70796;52.406;13.230;2024-03-23T12:22:25;4.97;;;2.40;;
4915;SDS011;70796;52.406;13.230;2024-03-23T12:24:51;14.83;;;2.70;;
4915;SDS011;70796;52.406;13.230;2024-03-23T12:27:17;13.17;;;3.60;;
4915;SDS011;70796;52.406;13.230;2024-03-23T12:29:43;8.47;;;2.20;;
4915;SDS011;70796;52.406;13.230;2024-03-23T12:32:11;7.83;;;2.50;;
4915;SDS011;70796;52.406;13.230;2024-03-23T12:34:39;10.17;;;2.40;;
4915;SDS011;70796;52.406;13.230;2024-03-23T12:37:07;4.27;;;1.90;;
4915;SDS011;70796;52.406;13.230;2024-03-23T12:39:32;9.50;;;2.77;;
4915;SDS011;70796;52.406;13.230;2024-03-23T12:42:00;8.67;;;2.33;;
4915;SDS011;70796;52.406;13.230;2024-03-23T12:44:26;15.13;;;2.53;;
4915;SDS011;70796;52.406;13.230;2024-03-23T12:46:51;8.43;;;2.40;;
4915;SDS011;70796;52.406;13.230;2024-03-23T12:49:17;10.87;;;2.27;;
4915;SDS011;70796;52.406;13.230;2024-03-23T12:51:53;4.60;;;1.70;;
4915;SDS011;70796;52.406;13.230;2024-03-23T12:54:20;7.77;;;2.13;;
4915;SDS011;70796;52.406;13.230;2024-03-23T12:56:46;7.60;;;1.80;;
4915;SDS011;70796;52.406;13.230;2024-03-23T12:59:12;7.30;;;2.10;;
4915;SDS011;70796;52.406;13.230;2024-03-23T13:01:38;7.23;;;1.90;;
4915;SDS011;70796;52.406;13.230;2024-03-23T13:04:04;9.13;;;2.23;;
4915;SDS011;70796;52.406;13.230;2024-03-23T13:06:31;8.13;;;1.60;;
4915;SDS011;70796;52.406;13.230;2024-03-23T13:09:00;8.50;;;2.00;;
4915;SDS011;70796;52.406;13.230;2024-03-23T13:11:26;5.73;;;1.80;;
4915;SDS011;70796;52.406;13.230;2024-03-23T13:13:52;8.57;;;1.83;;
4915;SDS011;70796;52.406;13.230;2024-03-23T13:16:17;8.57;;;2.10;;
4915;SDS011;70796;52.406;13.230;2024-03-23T13:18:43;6.00;;;2.10;;
4915;SDS011;70796;52.406;13.230;2024-03-23T13:21:09;16.53;;;3.00;;
4915;SDS011;70796;52.406;13.230;2024-03-23T13:23:34;9.47;;;2.47;;
4915;SDS011;70796;52.406;13.230;2024-03-23T13:26:01;11.10;;;3.57;;
4915;SDS011;70796;52.406;13.230;2024-03-23T13:28:26;10.27;;;2.80;;
4915;SDS011;70796;52.406;13.230;2024-03-23T13:30:55;7.57;;;3.03;;
4915;SDS011;70796;52.406;13.230;2024-03-23T13:33:21;5.30;;;2.53;;
4915;SDS011;70796;52.406;13.230;2024-03-23T13:35:54;9.67;;;3.00;;
4915;SDS011;70796;52.406;13.230;2024-03-23T13:38:23;13.10;;;2.73;;
4915;SDS011;70796;52.406;13.230;2024-03-23T13:40:52;7.53;;;3.00;;
4915;SDS011;70796;52.406;13.230;2024-03-23T13:43:22;15.93;;;3.30;;
4915;SDS011;70796;52.406;13.230;2024-03-23T13:45:49;15.00;;;3.33;;
4915;SDS011;70796;52.406;13.230;2024-03-23T13:48:19;7.13;;;2.57;;
4915;SDS011;70796;52.406;13.230;2024-03-23T13:50:45;9.17;;;3.33;;
4915;SDS011;70796;52.406;13.230;2024-03-23T13:53:12;6.97;;;3.20;;
4915;SDS011;70796;52.406;13.230;2024-03-23T13:55:38;9.33;;;2.60;;
4915;SDS011;70796;52.406;13.230;2024-03-23T13:58:12;11.53;;;2.87;;
4915;SDS011;70796;52.406;13.230;2024-03-23T14:00:37;8.93;;;3.67;;
4915;SDS011;70796;52.406;13.230;2024-03-23T14:03:03;18.60;;;3.47;;
4915;SDS011;70796;52.406;13.230;2024-03-23T14:05:28;9.17;;;3.50;;
4915;SDS011;70796;52.406;13.230;2024-03-23T14:07:54;14.00;;;3.40;;
4915;SDS011;70796;52.406;13.230;2024-03-23T14:10:19;8.73;;;3.10;;
4915;SDS011;70796;52.406;13.230;2024-03-23T14:12:45;15.80;;;4.03;;
4915;SDS011;70796;52.406;13.230;2024-03-23T14:15:10;11.80;;;3.30;;
4915;SDS011;70796;52.406;13.230;2024-03-23T14:17:36;13.63;;;3.87;;
4915;SDS011;70796;52.406;13.230;2024-03-23T14:20:01;8.43;;;3.30;;
4915;SDS011;70796;52.406;13.230;2024-03-23T14:22:30;11.57;;;3.83;;
4915;SDS011;70796;52.406;13.230;2024-03-23T14:24:57;13.63;;;4.07;;
4915;SDS011;70796;52.406;13.230;2024-03-23T14:27:24;11.47;;;3.97;;
4915;SDS011;70796;52.406;13.230;2024-03-23T14:29:49;12.13;;;3.50;;
4915;SDS011;70796;52.406;13.230;2024-03-23T14:32:16;12.20;;;4.07;;
4915;SDS011;70796;52.406;13.230;2024-03-23T14:34:41;13.60;;;3.80;;
4915;SDS011;70796;52.406;13.230;2024-03-23T14:37:07;8.27;;;3.77;;
4915;SDS011;70796;52.406;13.230;2024-03-23T14:39:33;13.77;;;3.77;;
4915;SDS011;70796;52.406;13.230;2024-03-23T14:42:03;13.50;;;4.40;;
4915;SDS011;70796;52.406;13.230;2024-03-23T14:44:29;5.30;;;2.77;;
4915;SDS011;70796;52.406;13.230;2024-03-23T14:46:54;4.50;;;2.60;;
4915;SDS011;70796;52.406;13.230;2024-03-23T14:49:22;10.53;;;2.33;;
4915;SDS011;70796;52.406;13.230;2024-03-23T14:51:49;5.47;;;2.20;;
4915;SDS011;70796;52.406;13.230;2024-03-23T14:54:15;3.77;;;1.80;;
4915;SDS011;70796;52.406;13.230;2024-03-23T14:56:40;5.50;;;1.90;;
4915;SDS011;70796;52.406;13.230;2024-03-23T14:59:06;3.40;;;1.70;;
4915;SDS011;70796;52.406;13.230;2024-03-23T15:01:32;2.73;;;1.63;;
4915;SDS011;70796;52.406;13.230;2024-03-23T15:03:57;2.93;;;1.50;;
4915;SDS011;70796;52.406;13.230;2024-03-23T15:06:23;4.50;;;1.70;;
4915;SDS011;70796;52.406;13.230;2024-03-23T15:08:48;4.57;;;1.70;;
4915;SDS011;70796;52.406;13.230;2024-03-23T15:11:14;2.07;;;1.43;;
4915;SDS011;70796;52.406;13.230;2024-03-23T15:13:43;3.97;;;1.23;;
4915;SDS011;70796;52.406;13.230;2024-03-23T15:16:09;4.23;;;1.53;;
4915;SDS011;70796;52.406;13.230;2024-03-23T15:18:35;6.83;;;1.97;;
4915;SDS011;70796;52.406;13.230;2024-03-23T15:21:01;4.87;;;1.50;;
4915;SDS011;70796;52.406;13.230;2024-03-23T15:23:31;10.50;;;1.80;;
4915;SDS011;70796;52.406;13.230;2024-03-23T15:25:57;9.93;;;1.97;;
4915;SDS011;70796;52.406;13.230;2024-03-23T15:28:23;4.43;;;1.90;;
4915;SDS011;70796;52.406;13.230;2024-03-23T15:30:52;4.20;;;2.07;;
4915;SDS011;70796;52.406;13.230;2024-03-23T15:33:18;10.10;;;1.90;;
4915;SDS011;70796;52.406;13.230;2024-03-23T15:35:44;7.93;;;2.17;;
4915;SDS011;70796;52.406;13.230;2024-03-23T15:38:10;5.23;;;1.70;;
4915;SDS011;70796;52.406;13.230;2024-03-23T15:40:36;9.00;;;2.10;;
4915;SDS011;70796;52.406;13.230;2024-03-23T15:43:02;4.33;;;1.73;;
4915;SDS011;70796;52.406;13.230;2024-03-23T15:45:28;2.83;;;1.57;;